Time;durP1;ratioP1;P1;durP2;ratioP2;P2;SDS_P1;SDS_P2;PMS_P1;PMS_P2;Temp;Humidity;BMP_temperature;BMP_pressure;BME280_temperature;BME280_humidity;BME280_pressure;Samples;Min_cycle;Max_cycle;Signal;HPM_P1;HPM_P2
2022/06/08 00:00:44;;;;;;;;;;;;;;;15.67;83.09;100932.19;5068753;28;19920;-78
2022/06/08 00:03:10;;;;;;;;;;;;;;;15.59;83.58;100941.41;5070721;28;19917;-79
2022/06/08 00:05:35;;;;;;;;;;;;;;;15.63;83.95;100927.41;5071145;28;19970;-78
2022/06/08 00:08:01;;;;;;;;;;;;;;;15.66;84.01;100929.69;5072786;28;19920;-79
2022/06/08 00:10:26;;;;;;;;;;;;;;;15.66;84.23;100918.84;5070562;28;19921;-79
2022/06/08 00:12:51;;;;;;;;;;;;;;;15.63;84.34;100920.09;5075624;28;19916;-78
2022/06/08 00:15:17;;;;;;;;;;;;;;;15.64;84.53;100920.91;5074777;28;19934;-79
2022/06/08 00:17:42;;;;;;;;;;;;;;;15.65;84.78;100917.19;5073018;28;19959;-79
2022/06/08 00:20:08;;;;;;;;;;;;;;;15.63;84.93;100914.66;5072932;28;19921;-78
2022/06/08 00:22:33;;;;;;;;;;;;;;;15.64;84.96;100904.63;5073024;28;19978;-78
2022/06/08 00:24:59;;;;;;;;;;;;;;;15.65;85.32;100915.28;5074491;28;20399;-78
2022/06/08 00:27:24;;;;;;;;;;;;;;;15.57;86.26;100910.94;5072879;28;19936;-79
2022/06/08 00:29:49;;;;;;;;;;;;;;;15.53;86.94;100903.41;5073750;28;20336;-78
2022/06/08 00:32:14;;;;;;;;;;;;;;;15.54;87.45;100905.94;5073714;28;19939;-79
2022/06/08 00:34:40;;;;;;;;;;;;;;;15.45;88.19;100892.81;5073549;28;19927;-79
2022/06/08 00:37:05;;;;;;;;;;;;;;;15.40;88.78;100896.16;5073811;28;19932;-78
2022/06/08 00:39:30;;;;;;;;;;;;;;;15.34;89.49;100894.31;5071588;28;20394;-79
2022/06/08 00:41:57;;;;;;;;;;;;;;;15.33;89.95;100887.22;5074115;28;19923;-78
2022/06/08 00:44:23;;;;;;;;;;;;;;;15.31;90.21;100889.31;5073876;28;19917;-79
2022/06/08 00:46:48;;;;;;;;;;;;;;;15.35;90.25;100877.00;5072601;28;20474;-78
2022/06/08 00:49:17;;;;;;;;;;;;;;;15.36;90.27;100870.53;5073250;28;19921;-79
2022/06/08 00:51:42;;;;;;;;;;;;;;;15.37;90.35;100866.75;5074080;28;19923;-79
2022/06/08 00:54:08;;;;;;;;;;;;;;;15.37;90.17;100864.03;5072611;28;20326;-79
2022/06/08 00:56:35;;;;;;;;;;;;;;;15.42;90.12;100856.09;5072548;28;20228;-79
2022/06/08 00:59:02;;;;;;;;;;;;;;;15.46;89.67;100860.06;5054624;28;19927;-79
2022/06/08 01:01:27;;;;;;;;;;;;;;;15.46;89.38;100851.09;5051948;28;19925;-78
2022/06/08 01:04:11;;;;;;;;;;;;;;;15.46;88.91;100851.94;5057402;28;19920;-79
2022/06/08 01:06:36;;;;;;;;;;;;;;;15.47;88.61;100850.88;5072093;28;19924;-79
2022/06/08 01:09:02;;;;;;;;;;;;;;;15.50;88.51;100841.47;5071691;28;19943;-79
2022/06/08 01:11:39;;;;;;;;;;;;;;;15.52;87.88;100840.22;5072191;28;19951;-79
2022/06/08 01:14:07;;;;;;;;;;;;;;;15.50;87.88;100839.59;5072390;28;20004;-80
2022/06/08 01:16:32;;;;;;;;;;;;;;;15.48;88.16;100840.84;5072225;28;19920;-79
2022/06/08 01:18:58;;;;;;;;;;;;;;;15.44;88.16;100840.44;5072952;28;19921;-80
2022/06/08 01:21:24;;;;;;;;;;;;;;;15.50;87.93;100838.75;5072357;28;19917;-79
2022/06/08 01:23:57;;;;;;;;;;;;;;;15.47;87.79;100831.88;5072696;28;20174;-79
2022/06/08 01:26:23;;;;;;;;;;;;;;;15.45;87.70;100828.53;5071679;28;19927;-78
2022/06/08 01:29:03;;;;;;;;;;;;;;;15.43;87.52;100824.38;5073896;28;19928;-79
2022/06/08 01:31:36;;;;;;;;;;;;;;;15.40;87.51;100827.53;5074436;28;19974;-80
2022/06/08 01:34:19;;;;;;;;;;;;;;;15.31;87.58;100824.22;5056148;28;19979;-78
2022/06/08 01:36:51;;;;;;;;;;;;;;;15.26;87.52;100822.16;5073576;28;19920;-78
2022/06/08 01:39:22;;;;;;;;;;;;;;;15.23;87.61;100813.63;5072246;28;19924;-79
2022/06/08 01:41:48;;;;;;;;;;;;;;;15.21;87.68;100808.41;5072639;28;20388;-78
2022/06/08 01:44:21;;;;;;;;;;;;;;;15.18;87.69;100802.56;5072454;28;19974;-79
2022/06/08 01:46:49;;;;;;;;;;;;;;;15.19;87.59;100796.94;5054487;28;19954;-79
2022/06/08 01:49:14;;;;;;;;;;;;;;;15.18;87.40;100802.56;5071030;28;19920;-79
2022/06/08 01:51:43;;;;;;;;;;;;;;;15.14;87.17;100794.06;5071141;28;19920;-79
2022/06/08 01:54:11;;;;;;;;;;;;;;;15.09;86.98;100786.56;5072278;28;19985;-78
2022/06/08 01:56:45;;;;;;;;;;;;;;;15.06;86.91;100786.97;5072462;28;19916;-79
2022/06/08 01:59:13;;;;;;;;;;;;;;;15.05;86.75;100782.59;5071959;28;20404;-79
2022/06/08 02:01:57;;;;;;;;;;;;;;;15.04;86.51;100775.50;5072149;28;20297;-78
2022/06/08 02:04:26;;;;;;;;;;;;;;;15.03;86.51;100773.81;5071759;28;19978;-78
2022/06/08 02:07:07;;;;;;;;;;;;;;;15.07;85.99;100769.66;5072305;28;19917;-78
2022/06/08 02:09:36;;;;;;;;;;;;;;;15.06;85.89;100767.16;5071916;28;19946;-78
2022/06/08 02:12:08;;;;;;;;;;;;;;;15.09;86.00;100762.16;5070864;28;19916;-78
2022/06/08 02:14:45;;;;;;;;;;;;;;;15.07;85.87;100764.25;5070446;28;19928;-77
2022/06/08 02:17:15;;;;;;;;;;;;;;;15.04;85.68;100761.97;5071146;28;19940;-78
2022/06/08 02:19:44;;;;;;;;;;;;;;;15.05;85.55;100752.78;5070409;28;19966;-79
2022/06/08 02:22:16;;;;;;;;;;;;;;;15.07;85.40;100753.41;5070951;28;19981;-79
2022/06/08 02:24:43;;;;;;;;;;;;;;;15.07;85.16;100761.53;5071858;28;19946;-79
2022/06/08 02:27:10;;;;;;;;;;;;;;;15.11;85.11;100743.81;5070864;28;19962;-79
2022/06/08 02:29:37;;;;;;;;;;;;;;;15.08;85.12;100748.81;5070676;28;20391;-79
2022/06/08 02:35:02;;;;;;;;;;;;;;;15.04;85.22;100740.28;4794384;23;19924;-77
2022/06/08 02:37:28;;;;;;;;;;;;;;;15.02;84.99;100739.66;5049246;28;20023;-77
2022/06/08 02:39:54;;;;;;;;;;;;;;;15.04;85.15;100736.75;5042082;28;19917;-77
2022/06/08 02:42:20;;;;;;;;;;;;;;;15.07;84.87;100741.72;5055132;28;19963;-77
2022/06/08 02:44:45;;;;;;;;;;;;;;;15.04;84.91;100736.75;5031665;28;20012;-76
2022/06/08 02:47:16;;;;;;;;;;;;;;;15.04;84.91;100737.56;5058586;28;19948;-76
2022/06/08 02:49:42;;;;;;;;;;;;;;;15.04;84.83;100725.91;5062511;28;19956;-77
2022/06/08 02:52:12;;;;;;;;;;;;;;;15.04;84.75;100726.72;5062748;28;20031;-76
2022/06/08 02:54:38;;;;;;;;;;;;;;;15.08;84.76;100725.22;5049513;28;19928;-77
2022/06/08 02:57:06;;;;;;;;;;;;;;;15.11;84.49;100721.25;5044645;28;19921;-77
2022/06/08 02:59:38;;;;;;;;;;;;;;;15.15;84.51;100733.34;5061978;28;19959;-77
2022/06/08 03:02:03;;;;;;;;;;;;;;;15.14;84.58;100724.41;5059623;28;19960;-77
2022/06/08 03:04:30;;;;;;;;;;;;;;;15.17;84.72;100725.03;5056561;28;19925;-76
2022/06/08 03:06:56;;;;;;;;;;;;;;;15.18;84.74;100715.81;5037910;28;20288;-75
2022/06/08 03:09:22;;;;;;;;;;;;;;;15.19;84.68;100717.47;5040136;28;19921;-76
2022/06/08 03:11:50;;;;;;;;;;;;;;;15.21;84.76;100712.69;5030514;28;19923;-76
2022/06/08 03:14:16;;;;;;;;;;;;;;;15.24;84.60;100714.97;5032806;28;19929;-77
2022/06/08 03:16:42;;;;;;;;;;;;;;;15.22;84.60;100706.19;5051260;28;19988;-76
2022/06/08 03:19:08;;;;;;;;;;;;;;;15.20;84.76;100703.72;5041543;28;20004;-79
2022/06/08 03:21:33;;;;;;;;;;;;;;;15.21;84.85;100701.84;5051459;28;19995;-76
2022/06/08 03:23:59;;;;;;;;;;;;;;;15.18;84.69;100707.69;5051123;28;19916;-76
2022/06/08 03:26:25;;;;;;;;;;;;;;;15.19;84.68;100717.47;5050304;28;19917;-77
2022/06/08 03:28:50;;;;;;;;;;;;;;;15.16;84.87;100707.91;5050251;28;20016;-77
2022/06/08 03:31:16;;;;;;;;;;;;;;;15.13;84.75;100703.75;5050746;28;19928;-76
2022/06/08 03:33:41;;;;;;;;;;;;;;;15.14;84.83;100704.59;5049612;28;20020;-77
2022/06/08 03:36:07;;;;;;;;;;;;;;;15.14;84.76;100700.00;5051428;28;20020;-77
2022/06/08 03:38:32;;;;;;;;;;;;;;;15.11;84.60;100688.72;5051197;28;19924;-76
2022/06/08 03:40:58;;;;;;;;;;;;;;;15.14;84.75;100691.88;5050818;28;19928;-77
2022/06/08 03:43:23;;;;;;;;;;;;;;;15.15;84.50;100692.69;5050065;28;19983;-77
2022/06/08 03:45:49;;;;;;;;;;;;;;;15.13;84.40;100692.91;5047789;28;19927;-77
2022/06/08 03:48:14;;;;;;;;;;;;;;;15.14;84.31;100691.03;5051788;28;19921;-76
2022/06/08 03:50:41;;;;;;;;;;;;;;;15.17;83.95;100692.50;5052341;28;19917;-77
2022/06/08 03:53:07;;;;;;;;;;;;;;;15.21;83.69;100691.00;5052388;28;19977;-76
2022/06/08 03:55:32;;;;;;;;;;;;;;;15.21;83.68;100694.53;5052357;28;19924;-77
2022/06/08 03:57:58;;;;;;;;;;;;;;;15.26;83.58;100691.19;5052546;28;19925;-77
2022/06/08 04:00:23;;;;;;;;;;;;;;;15.22;83.47;100695.34;5053058;28;19917;-77
2022/06/08 04:02:48;;;;;;;;;;;;;;;15.26;83.37;100688.47;5054047;28;20407;-77
2022/06/08 04:05:14;;;;;;;;;;;;;;;15.28;83.21;100686.38;5054354;28;19923;-77
2022/06/08 04:07:39;;;;;;;;;;;;;;;15.31;83.10;100683.22;5054187;28;19921;-78
2022/06/08 04:10:04;;;;;;;;;;;;;;;15.36;82.92;100688.84;5054517;28;19925;-77
2022/06/08 04:12:30;;;;;;;;;;;;;;;15.38;82.99;100678.59;5054520;28;19921;-77
2022/06/08 04:14:55;;;;;;;;;;;;;;;15.34;82.82;100677.38;5054831;28;20008;-78
2022/06/08 04:17:20;;;;;;;;;;;;;;;15.34;83.14;100680.06;5055788;28;19971;-77
2022/06/08 04:19:47;;;;;;;;;;;;;;;15.34;83.19;100683.63;5050493;28;19920;-77
2022/06/08 04:22:13;;;;;;;;;;;;;;;15.37;83.31;100685.06;5054547;28;20285;-77
2022/06/08 04:24:38;;;;;;;;;;;;;;;15.40;83.16;100679.19;5056007;28;19921;-78
2022/06/08 04:27:04;;;;;;;;;;;;;;;15.42;83.38;100674.41;5048819;28;19928;-77
2022/06/08 04:29:29;;;;;;;;;;;;;;;15.47;83.32;100673.75;5054162;28;19956;-78
2022/06/08 04:31:54;;;;;;;;;;;;;;;15.45;83.66;100679.38;5053169;28;20027;-77
2022/06/08 04:34:20;;;;;;;;;;;;;;;15.44;83.56;100672.31;5053012;28;19921;-78
2022/06/08 04:36:45;;;;;;;;;;;;;;;15.46;83.44;100683.78;5053791;28;19928;-78
2022/06/08 04:39:11;;;;;;;;;;;;;;;15.48;83.56;100678.97;5053337;28;20012;-78
2022/06/08 04:41:37;;;;;;;;;;;;;;;15.50;83.76;100676.84;5052896;28;19917;-78
2022/06/08 04:44:02;;;;;;;;;;;;;;;15.54;83.34;100678.09;5054240;28;19928;-78
2022/06/08 04:46:28;;;;;;;;;;;;;;;15.53;83.32;100676.44;5053635;28;20495;-78
2022/06/08 04:48:54;;;;;;;;;;;;;;;15.52;83.19;100673.94;5052696;28;20450;-77
2022/06/08 04:51:19;;;;;;;;;;;;;;;15.55;83.29;100676.19;5052752;28;19921;-78
2022/06/08 04:53:45;;;;;;;;;;;;;;;15.65;83.15;100673.00;5052528;28;19978;-78
2022/06/08 04:56:10;;;;;;;;;;;;;;;15.61;83.12;100667.16;5048588;28;19967;-77
2022/06/08 04:58:35;;;;;;;;;;;;;;;15.65;82.95;100668.41;5043692;28;19995;-77
2022/06/08 05:01:01;;;;;;;;;;;;;;;15.62;83.10;100665.31;5048974;28;19928;-78
2022/06/08 05:03:26;;;;;;;;;;;;;;;15.67;83.34;100660.06;5053934;28;20296;-78
2022/06/08 05:05:52;;;;;;;;;;;;;;;15.73;83.38;100664.63;5053086;28;19920;-77
2022/06/08 05:08:18;;;;;;;;;;;;;;;15.84;83.06;100654.94;5052137;28;20005;-77
2022/06/08 05:10:44;;;;;;;;;;;;;;;15.87;82.17;100660.75;5042816;28;19921;-77
2022/06/08 05:13:10;;;;;;;;;;;;;;;15.89;82.05;100655.94;5051809;28;20178;-77
2022/06/08 05:15:36;;;;;;;;;;;;;;;16.05;81.70;100656.44;5053616;28;19928;-77
2022/06/08 05:18:01;;;;;;;;;;;;;;;16.13;81.21;100653.44;5050738;28;19931;-77
2022/06/08 05:20:27;;;;;;;;;;;;;;;16.24;80.83;100649.97;5053299;28;19917;-77
2022/06/08 05:22:52;;;;;;;;;;;;;;;16.31;80.79;100649.94;5051522;28;19924;-76
2022/06/08 05:25:19;;;;;;;;;;;;;;;16.35;80.40;100641.09;5051001;28;19932;-76
2022/06/08 05:27:44;;;;;;;;;;;;;;;16.36;80.29;100642.75;5045764;28;20013;-76
2022/06/08 05:30:10;;;;;;;;;;;;;;;16.27;80.73;100643.25;5033665;28;19921;-77
2022/06/08 05:32:36;;;;;;;;;;;;;;;16.23;80.85;100635.56;5025715;28;19928;-76
2022/06/08 05:35:01;;;;;;;;;;;;;;;16.29;80.44;100633.84;5046225;28;19927;-76
2022/06/08 05:37:26;;;;;;;;;;;;;;;16.33;80.15;100632.34;5048655;28;20009;-77
2022/06/08 05:39:51;;;;;;;;;;;;;;;16.43;80.29;100629.94;5058460;28;20323;-77
2022/06/08 05:42:16;;;;;;;;;;;;;;;16.57;79.44;100621.66;5041549;28;19944;-77
2022/06/08 05:44:42;;;;;;;;;;;;;;;16.60;79.23;100616.56;5051117;28;20292;-77
2022/06/08 05:47:07;;;;;;;;;;;;;;;16.62;78.98;100621.78;5056328;28;19929;-77
2022/06/08 05:49:33;;;;;;;;;;;;;;;16.67;79.19;100621.94;5053783;28;19921;-78
2022/06/08 05:51:59;;;;;;;;;;;;;;;16.79;79.29;100609.25;5051422;28;19934;-77
2022/06/08 05:54:24;;;;;;;;;;;;;;;16.88;78.93;100618.78;5049823;28;19921;-76
2022/06/08 05:56:49;;;;;;;;;;;;;;;16.74;78.39;100603.66;5050903;28;20034;-75
2022/06/08 05:59:15;;;;;;;;;;;;;;;16.87;78.45;100610.84;5046480;28;19984;-76
2022/06/08 06:01:41;;;;;;;;;;;;;;;16.88;78.35;100604.34;5051654;28;20258;-76
2022/06/08 06:04:07;;;;;;;;;;;;;;;16.87;78.18;100597.25;5051036;28;19970;-76
2022/06/08 06:06:32;;;;;;;;;;;;;;;16.97;78.02;100600.25;5052468;28;19917;-76
2022/06/08 06:08:57;;;;;;;;;;;;;;;16.93;78.34;100590.06;5051834;28;19920;-76
2022/06/08 06:11:23;;;;;;;;;;;;;;;16.93;78.24;100581.91;5052128;28;19921;-77
2022/06/08 06:13:48;;;;;;;;;;;;;;;17.02;78.24;100577.81;5052129;28;19929;-77
2022/06/08 06:16:13;;;;;;;;;;;;;;;17.12;78.15;100586.25;5052097;28;19931;-77
2022/06/08 06:18:38;;;;;;;;;;;;;;;17.23;77.75;100582.72;5052534;28;19921;-76
2022/06/08 06:21:04;;;;;;;;;;;;;;;17.22;76.70;100580.22;5052319;28;19917;-77
2022/06/08 06:23:29;;;;;;;;;;;;;;;17.29;76.91;100584.50;5052644;28;19924;-77
2022/06/08 06:25:54;;;;;;;;;;;;;;;17.28;77.05;100573.88;5052379;28;19920;-76
2022/06/08 06:28:19;;;;;;;;;;;;;;;17.32;77.21;100575.91;5045570;28;19921;-77
2022/06/08 06:30:45;;;;;;;;;;;;;;;17.27;76.67;100578.50;5023703;28;19929;-77
2022/06/08 06:33:10;;;;;;;;;;;;;;;17.22;77.21;100578.34;5050312;28;20420;-76
2022/06/08 06:35:36;;;;;;;;;;;;;;;17.07;77.42;100575.22;5048276;28;20016;-76
2022/06/08 06:38:01;;;;;;;;;;;;;;;16.96;78.14;100570.59;5050965;28;19959;-76
2022/06/08 06:40:26;;;;;;;;;;;;;;;17.00;78.01;100571.78;5051407;28;19916;-76
2022/06/08 06:42:51;;;;;;;;;;;;;;;17.03;77.91;100576.75;5051570;28;20015;-76
2022/06/08 06:45:17;;;;;;;;;;;;;;;17.14;77.69;100583.28;5050556;28;20284;-75
2022/06/08 06:47:42;;;;;;;;;;;;;;;17.11;77.53;100571.81;5066848;28;19916;-76
2022/06/08 06:50:08;;;;;;;;;;;;;;;17.14;77.60;100566.97;5051580;28;19932;-76
2022/06/08 06:52:33;;;;;;;;;;;;;;;17.17;77.28;100575.50;5051482;28;19916;-76
2022/06/08 06:54:58;;;;;;;;;;;;;;;17.32;76.95;100575.91;5049865;28;19939;-76
2022/06/08 06:57:23;;;;;;;;;;;;;;;17.44;76.23;100573.19;5049768;28;19920;-77
2022/06/08 06:59:48;;;;;;;;;;;;;;;17.44;75.46;100569.66;5051178;28;20273;-74
2022/06/08 07:02:15;;;;;;;;;;;;;;;17.45;75.60;100572.13;5033109;28;19917;-75
2022/06/08 07:04:40;;;;;;;;;;;;;;;17.44;74.48;100564.22;5045265;28;20062;-75
2022/06/08 07:07:06;;;;;;;;;;;;;;;17.44;74.74;100561.50;5047254;28;20011;-76
2022/06/08 07:09:31;;;;;;;;;;;;;;;17.52;74.88;100566.59;5052248;28;20352;-75
2022/06/08 07:11:57;;;;;;;;;;;;;;;17.58;75.48;100562.91;5040723;28;19922;-75
2022/06/08 07:14:22;;;;;;;;;;;;;;;17.40;74.71;100558.38;5041687;28;19920;-75
2022/06/08 07:16:47;;;;;;;;;;;;;;;17.59;74.67;100551.00;5042992;28;20234;-75
2022/06/08 07:19:13;;;;;;;;;;;;;;;17.70;75.13;100550.16;5047536;28;19921;-75
2022/06/08 07:21:38;;;;;;;;;;;;;;;17.62;74.54;100546.97;5049232;28;19947;-76
2022/06/08 07:24:04;;;;;;;;;;;;;;;17.71;74.41;100546.34;5049416;28;20019;-76
2022/06/08 07:26:29;;;;;;;;;;;;;;;17.83;73.58;100551.03;5049658;28;20299;-75
2022/06/08 07:28:55;;;;;;;;;;;;;;;18.00;72.99;100541.06;5032107;28;20233;-76
2022/06/08 07:31:21;;;;;;;;;;;;;;;18.34;72.14;100533.88;5044561;28;20347;-75
2022/06/08 07:33:46;;;;;;;;;;;;;;;18.24;72.46;100539.13;5041115;28;19948;-76
2022/06/08 07:36:11;;;;;;;;;;;;;;;18.33;72.39;100542.31;5048127;28;19920;-76
2022/06/08 07:38:37;;;;;;;;;;;;;;;18.19;72.85;100542.59;5038710;28;19947;-76
2022/06/08 07:41:02;;;;;;;;;;;;;;;18.17;73.74;100544.72;5041821;28;19921;-77
2022/06/08 07:43:27;;;;;;;;;;;;;;;18.16;74.22;100547.66;5050427;28;20199;-76
2022/06/08 07:45:52;;;;;;;;;;;;;;;17.99;75.00;100544.84;5045460;28;20437;-76
2022/06/08 07:51:02;;;;;;;;;;;;;;;18.02;75.03;100541.66;5049981;28;19940;-76
2022/06/08 07:53:27;;;;;;;;;;;;;;;18.00;75.10;100543.78;5032506;28;19921;-75
2022/06/08 07:55:52;;;;;;;;;;;;;;;17.72;76.45;100541.72;5048927;28;20308;-74
2022/06/08 07:58:17;;;;;;;;;;;;;;;17.54;77.12;100545.41;5050543;28;20287;-76
2022/06/08 08:00:46;;;;;;;;;;;;;;;17.64;77.32;100540.22;5041546;28;20360;-76
2022/06/08 08:03:12;;;;;;;;;;;;;;;17.63;78.09;100545.88;5048873;28;20355;-76
2022/06/08 08:05:37;;;;;;;;;;;;;;;17.78;77.49;100547.06;5050239;28;19928;-76
2022/06/08 08:08:04;;;;;;;;;;;;;;;17.89;76.76;100547.34;5049799;28;20300;-76
2022/06/08 08:10:29;;;;;;;;;;;;;;;17.97;77.11;100545.09;5050408;28;19972;-76
2022/06/08 08:12:55;;;;;;;;;;;;;;;18.12;77.31;100541.06;5049792;28;19959;-77
2022/06/08 08:15:20;;;;;;;;;;;;;;;18.43;75.47;100534.31;5050218;28;20381;-76
2022/06/08 08:17:46;;;;;;;;;;;;;;;18.82;74.61;100529.13;5048574;28;19986;-76
2022/06/08 08:20:12;;;;;;;;;;;;;;;18.62;73.44;100529.56;5044933;28;19921;-76
2022/06/08 08:22:38;;;;;;;;;;;;;;;18.77;73.46;100534.47;5050340;28;20015;-75
2022/06/08 08:25:03;;;;;;;;;;;;;;;18.62;73.89;100530.38;5050984;28;20009;-76
2022/06/08 08:27:28;;;;;;;;;;;;;;;18.67;74.37;100523.34;5050839;28;19917;-77
2022/06/08 08:29:53;;;;;;;;;;;;;;;18.92;73.64;100523.88;5049947;28;19935;-76
2022/06/08 08:32:19;;;;;;;;;;;;;;;18.99;73.57;100526.44;5039686;28;19917;-76
2022/06/08 08:34:44;;;;;;;;;;;;;;;18.73;72.73;100530.56;5051467;28;19947;-77
2022/06/08 08:37:09;;;;;;;;;;;;;;;18.53;73.27;100529.09;5053643;28;19994;-76
2022/06/08 08:39:35;;;;;;;;;;;;;;;18.62;73.36;100527.66;5053267;28;19920;-76
2022/06/08 08:44:54;;;;;;;;;;;;;;;18.30;74.98;100526.44;5051816;28;19997;-75
2022/06/08 08:47:38;;;;;;;;;;;;;;;18.23;75.80;100520.31;5051008;28;19983;-76
2022/06/08 08:50:22;;;;;;;;;;;;;;;18.30;74.92;100523.69;5051836;28;19927;-76
2022/06/08 08:52:50;;;;;;;;;;;;;;;18.25;77.14;100523.63;5041123;28;20015;-76
2022/06/08 08:55:17;;;;;;;;;;;;;;;18.18;79.35;100523.75;5053310;28;19951;-77
2022/06/08 08:57:47;;;;;;;;;;;;;;;18.20;80.32;100525.16;5042247;28;19967;-76
2022/06/08 09:00:45;;;;;;;;;;;;;;;17.96;82.32;100526.28;5048827;28;20342;-75
2022/06/08 09:03:21;;;;;;;;;;;;;;;17.71;83.21;100521.03;5013586;28;20020;-75
2022/06/08 09:05:48;;;;;;;;;;;;;;;17.52;84.27;100526.59;5051664;28;20035;-75
2022/06/08 09:08:15;;;;;;;;;;;;;;;17.42;85.69;100528.25;5052815;28;20304;-75
2022/06/08 09:10:40;;;;;;;;;;;;;;;17.39;87.30;100531.44;5049899;28;20015;-75
2022/06/08 09:13:06;;;;;;;;;;;;;;;17.28;88.48;100528.47;5053357;28;20314;-75
2022/06/08 09:15:42;;;;;;;;;;;;;;;17.38;88.77;100535.19;5051782;28;19924;-76
2022/06/08 09:18:08;;;;;;;;;;;;;;;16.97;89.93;100537.72;5033353;28;19917;-76
2022/06/08 09:20:35;;;;;;;;;;;;;;;16.72;91.27;100526.97;5031770;28;19962;-76
2022/06/08 09:23:02;;;;;;;;;;;;;;;16.76;92.24;100525.44;5047520;28;20383;-75
2022/06/08 09:25:33;;;;;;;;;;;;;;;16.81;92.30;100528.34;5050706;28;19920;-75
2022/06/08 09:27:59;;;;;;;;;;;;;;;16.88;93.35;100518.19;5046487;28;19925;-76
2022/06/08 09:30:26;;;;;;;;;;;;;;;16.86;91.64;100525.75;5049440;28;20292;-76
2022/06/08 09:32:56;;;;;;;;;;;;;;;16.80;90.24;100529.41;5051940;28;19917;-77
2022/06/08 09:35:30;;;;;;;;;;;;;;;16.62;90.49;100532.13;5052482;28;19939;-75
2022/06/08 09:37:57;;;;;;;;;;;;;;;16.58;90.48;100536.34;5051303;28;19932;-77
2022/06/08 09:40:40;;;;;;;;;;;;;;;16.39;91.45;100528.22;5031284;28;20445;-77
2022/06/08 09:43:17;;;;;;;;;;;;;;;16.16;92.00;100528.91;5051973;28;19925;-77
2022/06/08 09:45:45;;;;;;;;;;;;;;;15.96;93.44;100529.16;5039526;28;20838;-75
2022/06/08 09:51:27;;;;;;;;;;;;;;;15.83;95.03;100537.44;5045049;28;20296;-80
2022/06/08 09:54:07;;;;;;;;;;;;;;;15.91;96.38;100531.72;5057866;28;19921;-76
2022/06/08 09:56:35;;;;;;;;;;;;;;;15.80;97.03;100536.00;5057593;28;19981;-79
2022/06/08 09:59:14;;;;;;;;;;;;;;;15.75;97.38;100537.72;5060484;28;19920;-78
2022/06/08 10:01:39;;;;;;;;;;;;;;;15.87;97.91;100535.09;5057438;28;19984;-79
2022/06/08 10:04:20;;;;;;;;;;;;;;;15.74;98.09;100536.03;5053743;28;19955;-77
2022/06/08 10:06:51;;;;;;;;;;;;;;;15.78;98.47;100537.28;5053039;28;20385;-80
2022/06/08 10:09:34;;;;;;;;;;;;;;;15.67;98.62;100546.13;5053122;28;19971;-79
2022/06/08 10:12:02;;;;;;;;;;;;;;;15.56;99.69;100545.78;5052189;28;20377;-80
2022/06/08 10:14:41;;;;;;;;;;;;;;;15.34;100.00;100548.03;5052147;28;19916;-78
2022/06/08 10:17:17;;;;;;;;;;;;;;;15.18;99.53;100539.63;5053633;28;20280;-78
2022/06/08 10:20:03;;;;;;;;;;;;;;;14.97;98.93;100557.06;5034932;28;19917;-78
2022/06/08 10:22:30;;;;;;;;;;;;;;;14.74;98.42;100546.78;5052635;28;19921;-77
2022/06/08 10:24:58;;;;;;;;;;;;;;;14.71;98.70;100548.84;5035006;28;20039;-78
2022/06/08 10:27:32;;;;;;;;;;;;;;;14.66;98.72;100551.38;5052449;28;20012;-77
2022/06/08 10:30:04;;;;;;;;;;;;;;;14.63;98.60;100551.81;5051136;28;20344;-78
2022/06/08 10:32:30;;;;;;;;;;;;;;;14.60;99.06;100552.25;5052272;28;19921;-78
2022/06/08 10:34:55;;;;;;;;;;;;;;;14.66;99.55;100553.25;5051010;28;19975;-79
2022/06/08 10:37:50;;;;;;;;;;;;;;;14.68;100.00;100554.72;5051339;28;19921;-79
2022/06/08 10:40:17;;;;;;;;;;;;;;;14.65;100.00;100552.44;5043144;28;20330;-76
2022/06/08 10:42:48;;;;;;;;;;;;;;;14.73;100.00;100553.25;5050703;28;19923;-78
2022/06/08 10:45:19;;;;;;;;;;;;;;;14.88;100.00;100553.78;5052084;28;19952;-78
2022/06/08 10:47:44;;;;;;;;;;;;;;;14.94;99.49;100552.91;5052121;28;19917;-79
2022/06/08 10:50:13;;;;;;;;;;;;;;;14.85;98.29;100551.50;5050698;28;19917;-77
2022/06/08 10:52:40;;;;;;;;;;;;;;;14.86;98.07;100545.88;5053562;28;20011;-79
2022/06/08 10:55:14;;;;;;;;;;;;;;;14.74;97.40;100552.19;5051992;28;19917;-79
2022/06/08 10:57:50;;;;;;;;;;;;;;;14.69;97.40;100540.13;5050718;28;20274;-77
2022/06/08 11:00:15;;;;;;;;;;;;;;;14.71;97.24;100542.63;5051148;28;19921;-78
2022/06/08 11:02:40;;;;;;;;;;;;;;;14.56;97.95;100528.53;5051835;28;19917;-78
2022/06/08 11:05:05;;;;;;;;;;;;;;;14.41;99.29;100526.06;5049937;28;19920;-77
2022/06/08 11:07:32;;;;;;;;;;;;;;;14.33;100.00;100529.03;5051194;28;19921;-76
2022/06/08 11:09:58;;;;;;;;;;;;;;;14.32;100.00;100538.19;5030323;28;20361;-79
2022/06/08 11:12:33;;;;;;;;;;;;;;;14.30;100.00;100533.00;5031016;28;19952;-78
2022/06/08 11:15:01;;;;;;;;;;;;;;;14.27;100.00;100528.84;5032674;28;20277;-78
2022/06/08 11:17:37;;;;;;;;;;;;;;;14.31;100.00;100531.94;5046194;28;19947;-78
2022/06/08 11:20:18;;;;;;;;;;;;;;;14.46;100.00;100524.38;5050815;28;19943;-78
2022/06/08 11:22:51;;;;;;;;;;;;;;;14.52;100.00;100528.09;5052923;28;20343;-76
2022/06/08 11:25:19;;;;;;;;;;;;;;;14.41;100.00;100531.50;5045073;28;19921;-76
2022/06/08 11:27:44;;;;;;;;;;;;;;;14.34;100.00;100530.69;5039450;28;19921;-78
2022/06/08 11:30:23;;;;;;;;;;;;;;;14.28;100.00;100530.47;5033467;28;19955;-76
2022/06/08 11:32:51;;;;;;;;;;;;;;;14.32;100.00;100521.94;5045413;28;19925;-78
2022/06/08 11:35:40;;;;;;;;;;;;;;;14.45;100.00;100519.16;5030210;28;20004;-77
2022/06/08 11:38:11;;;;;;;;;;;;;;;14.40;100.00;100513.56;5031663;28;19924;-78
2022/06/08 11:40:36;;;;;;;;;;;;;;;14.47;100.00;100514.38;5031879;28;20344;-80
2022/06/08 11:43:08;;;;;;;;;;;;;;;14.39;100.00;100511.91;5048733;28;19917;-80
2022/06/08 11:45:39;;;;;;;;;;;;;;;14.43;100.00;100505.03;5052012;28;20300;-80
2022/06/08 11:48:14;;;;;;;;;;;;;;;14.51;100.00;100502.06;5050534;28;19917;-79
2022/06/08 11:50:41;;;;;;;;;;;;;;;14.59;100.00;100496.44;5052760;28;19924;-79
2022/06/08 11:53:08;;;;;;;;;;;;;;;14.69;100.00;100504.06;5051812;28;19987;-78
2022/06/08 11:55:35;;;;;;;;;;;;;;;14.75;100.00;100505.94;5051034;28;19916;-79
2022/06/08 11:58:08;;;;;;;;;;;;;;;14.70;100.00;100493.03;5034306;28;20360;-79
2022/06/08 12:00:33;;;;;;;;;;;;;;;14.75;100.00;100494.28;5050623;28;19927;-80
2022/06/08 12:03:16;;;;;;;;;;;;;;;14.66;100.00;100496.38;5051235;28;19921;-79
2022/06/08 12:06:08;;;;;;;;;;;;;;;14.65;100.00;100492.84;5049811;28;19939;-79
2022/06/08 12:08:51;;;;;;;;;;;;;;;14.77;100.00;100493.00;5045470;28;19943;-79
2022/06/08 12:11:17;;;;;;;;;;;;;;;14.71;100.00;100504.69;5048168;28;20455;-80
2022/06/08 12:14:04;;;;;;;;;;;;;;;14.81;100.00;100488.78;5055971;28;19921;-79
2022/06/08 12:16:34;;;;;;;;;;;;;;;14.74;100.00;100488.00;5055471;28;19921;-79
2022/06/08 12:19:01;;;;;;;;;;;;;;;14.76;100.00;100487.78;5056740;28;20412;-79
2022/06/08 12:21:31;;;;;;;;;;;;;;;14.66;100.00;100485.56;5049983;28;19917;-81
2022/06/08 12:24:02;;;;;;;;;;;;;;;14.59;100.00;100480.19;5056807;28;19975;-80
2022/06/08 12:27:00;;;;;;;;;;;;;;;14.61;100.00;100480.81;5056597;28;20388;-80
2022/06/08 12:29:39;;;;;;;;;;;;;;;14.67;100.00;100488.06;5032676;28;19960;-79
2022/06/08 12:32:21;;;;;;;;;;;;;;;14.62;100.00;100479.75;5035163;28;19988;-80
2022/06/08 12:34:51;;;;;;;;;;;;;;;14.62;100.00;100471.63;5048566;28;20237;-79
2022/06/08 12:37:23;;;;;;;;;;;;;;;14.73;100.00;100478.22;5057310;28;19920;-79
2022/06/08 12:39:48;;;;;;;;;;;;;;;14.83;100.00;100469.63;5056524;28;19916;-81
2022/06/08 12:42:32;;;;;;;;;;;;;;;14.73;100.00;100463.84;5056794;28;19928;-81
2022/06/08 12:44:58;;;;;;;;;;;;;;;14.75;100.00;100469.88;5056698;28;20304;-80
2022/06/08 12:47:26;;;;;;;;;;;;;;;14.80;100.00;100464.66;5054681;28;19921;-78
2022/06/08 12:49:55;;;;;;;;;;;;;;;14.82;100.00;100467.94;5053498;28;19927;-80
2022/06/08 12:52:28;;;;;;;;;;;;;;;14.87;100.00;100455.41;5048405;28;19927;-80